EZY87TW EGGD-HEGN
Flight info
| Callsign | EZY87TW |
|---|---|
| Flight time | N/A |
| Altitude | 35000 |
| Route | HAWFA L607 KONAN UL607 KOK DCT REMBA DCT LIRSU DCT ULNOK DCT VIBOM DCT NOMBO DCT RIDAR DCT RADIZ DCT SABAD DCT SIRMI DCT NERRA DCT KOFER DCT RODON DCT DIMIS/N0444F370 UL604 SALUN N705 BOPIX N710 TAKRI M720 FYM M872 BOPOB BOPOB1A |
| Aircraft | A320/M-SDE3FGHIRWY/LB1 |
Departure
| Time | 2026-05-01 11:18 |
|---|---|
| Airport | Bristol Airport (EGGD) |
Arrival
| Time | N/A |
|---|---|
| Airport | Hurghada International Airport (HEGN) |
| Time | Latitude | Longitude | Altitude | Speed | Heading |
|---|---|---|---|---|---|
| 2026-05-01 10:53 | 51.38523 | -2.71078 | 612 ft | 0 kts | 356° |
| 2026-05-01 11:11 | 51.38512 | -2.71077 | 612 ft | 4 kts | 356° |
| 2026-05-01 11:11 | 51.38490 | -2.71075 | 612 ft | 3 kts | 357° |
| 2026-05-01 11:12 | 51.38467 | -2.71080 | 617 ft | 4 kts | 46° |
| 2026-05-01 11:12 | 51.38459 | -2.71113 | 623 ft | 4 kts | 86° |
| 2026-05-01 11:12 | 51.38458 | -2.71123 | 623 ft | 2 kts | 86° |
| 2026-05-01 11:14 | 51.38459 | -2.71120 | 623 ft | 1 kts | 86° |
| 2026-05-01 11:15 | 51.38461 | -2.71061 | 617 ft | 10 kts | 86° |
| 2026-05-01 11:15 | 51.38465 | -2.70960 | 614 ft | 8 kts | 86° |
| 2026-05-01 11:15 | 51.38468 | -2.70876 | 629 ft | 7 kts | 86° |
| 2026-05-01 11:15 | 51.38471 | -2.70790 | 611 ft | 9 kts | 86° |
| 2026-05-01 11:16 | 51.38476 | -2.70687 | 610 ft | 9 kts | 86° |
| 2026-05-01 11:16 | 51.38478 | -2.70592 | 619 ft | 8 kts | 91° |
| 2026-05-01 11:16 | 51.38459 | -2.70528 | 616 ft | 6 kts | 152° |
| 2026-05-01 11:16 | 51.38442 | -2.70519 | 612 ft | 0 kts | 165° |
| 2026-05-01 11:17 | 51.38427 | -2.70512 | 612 ft | 9 kts | 165° |
| 2026-05-01 11:17 | 51.38349 | -2.70482 | 612 ft | 10 kts | 172° |
| 2026-05-01 11:17 | 51.38320 | -2.70552 | 617 ft | 0 kts | 268° |
| 2026-05-01 11:17 | 51.38320 | -2.70563 | 614 ft | 6 kts | 268° |
| 2026-05-01 11:18 | 51.38302 | -2.71036 | 603 ft | 83 kts | 266° |
| 2026-05-01 11:18 | 51.38251 | -2.72333 | 630 ft | 146 kts | 266° |
| 2026-05-01 11:18 | 51.38194 | -2.74092 | 1096 ft | 162 kts | 266° |
| 2026-05-01 11:18 | 51.38145 | -2.75919 | 1911 ft | 167 kts | 265° |
| 2026-05-01 11:19 | 51.38082 | -2.77874 | 2434 ft | 186 kts | 265° |
| 2026-05-01 11:19 | 51.38006 | -2.80061 | 2704 ft | 208 kts | 264° |
| 2026-05-01 11:19 | 51.37918 | -2.82504 | 2945 ft | 230 kts | 264° |
| 2026-05-01 11:19 | 51.37827 | -2.85117 | 3587 ft | 238 kts | 263° |
| 2026-05-01 11:20 | 51.37957 | -2.87790 | 4371 ft | 247 kts | 282° |
| 2026-05-01 11:20 | 51.38704 | -2.90311 | 5105 ft | 257 kts | 304° |
| 2026-05-01 11:20 | 51.40036 | -2.92276 | 5903 ft | 266 kts | 327° |
| 2026-05-01 11:20 | 51.41785 | -2.93327 | 6666 ft | 274 kts | 352° |
| 2026-05-01 11:21 | 51.43681 | -2.93172 | 7332 ft | 276 kts | 18° |
| 2026-05-01 11:21 | 51.45386 | -2.91820 | 7996 ft | 274 kts | 43° |
| 2026-05-01 11:21 | 51.46608 | -2.89531 | 8679 ft | 269 kts | 67° |
| 2026-05-01 11:21 | 51.47167 | -2.86718 | 9359 ft | 263 kts | 90° |
| 2026-05-01 11:22 | 51.47252 | -2.83799 | 10089 ft | 263 kts | 92° |
| 2026-05-01 11:22 | 51.47326 | -2.80856 | 10739 ft | 266 kts | 92° |
| 2026-05-01 11:22 | 51.47404 | -2.77885 | 11367 ft | 269 kts | 92° |
| 2026-05-01 11:22 | 51.47539 | -2.74865 | 11985 ft | 275 kts | 84° |
| 2026-05-01 11:23 | 51.48113 | -2.71895 | 12595 ft | 284 kts | 68° |
| 2026-05-01 11:23 | 51.49209 | -2.69150 | 12921 ft | 306 kts | 52° |
| 2026-05-01 11:23 | 51.50840 | -2.66755 | 13061 ft | 329 kts | 44° |
| 2026-05-01 11:23 | 51.52284 | -2.63906 | 13192 ft | 341 kts | 66° |
| 2026-05-01 11:24 | 51.53036 | -2.60206 | 13359 ft | 350 kts | 86° |
| 2026-05-01 11:24 | 51.53074 | -2.56346 | 13796 ft | 352 kts | 100° |
| 2026-05-01 11:24 | 51.52511 | -2.48461 | 14854 ft | 359 kts | 99° |
| 2026-05-01 11:25 | 51.52256 | -2.44457 | 15390 ft | 362 kts | 99° |
| 2026-05-01 11:25 | 51.51744 | -2.36347 | 16435 ft | 368 kts | 99° |
| 2026-05-01 11:25 | 51.51477 | -2.32239 | 16964 ft | 371 kts | 100° |
| 2026-05-01 11:26 | 51.51200 | -2.28099 | 17526 ft | 375 kts | 100° |
| 2026-05-01 11:26 | 51.50620 | -2.19710 | 18613 ft | 381 kts | 100° |
| 2026-05-01 11:26 | 51.50321 | -2.15459 | 19057 ft | 384 kts | 100° |
| 2026-05-01 11:27 | 51.50021 | -2.11191 | 19512 ft | 386 kts | 100° |
| 2026-05-01 11:27 | 51.49718 | -2.06894 | 19961 ft | 388 kts | 100° |
| 2026-05-01 11:27 | 51.49412 | -2.02572 | 20389 ft | 391 kts | 100° |
| 2026-05-01 11:27 | 51.49106 | -1.98276 | 20829 ft | 393 kts | 100° |
| 2026-05-01 11:28 | 51.48793 | -1.93856 | 21262 ft | 395 kts | 100° |
| 2026-05-01 11:28 | 51.48486 | -1.89516 | 21655 ft | 398 kts | 100° |
| 2026-05-01 11:28 | 51.48171 | -1.85087 | 22046 ft | 401 kts | 100° |
| 2026-05-01 11:29 | 51.47517 | -1.76136 | 22853 ft | 406 kts | 100° |
| 2026-05-01 11:29 | 51.47184 | -1.71624 | 23236 ft | 409 kts | 100° |
| 2026-05-01 11:29 | 51.46217 | -1.62638 | 23963 ft | 411 kts | 105° |
| 2026-05-01 11:30 | 51.45603 | -1.58152 | 24295 ft | 413 kts | 106° |
| 2026-05-01 11:30 | 51.44982 | -1.53647 | 24622 ft | 415 kts | 106° |
| 2026-05-01 11:30 | 51.44359 | -1.49122 | 24940 ft | 417 kts | 105° |
| 2026-05-01 11:30 | 51.43733 | -1.44564 | 25262 ft | 419 kts | 105° |
| 2026-05-01 11:31 | 51.43108 | -1.40000 | 25585 ft | 420 kts | 106° |
| 2026-05-01 11:31 | 51.42480 | -1.35435 | 25914 ft | 421 kts | 106° |
| 2026-05-01 11:31 | 51.41845 | -1.30843 | 26217 ft | 423 kts | 106° |
| 2026-05-01 11:31 | 51.41205 | -1.26232 | 26516 ft | 425 kts | 106° |
| 2026-05-01 11:32 | 51.40557 | -1.21591 | 26815 ft | 427 kts | 106° |
| 2026-05-01 11:32 | 51.39908 | -1.16941 | 27108 ft | 429 kts | 105° |
| 2026-05-01 11:32 | 51.39484 | -1.12186 | 27396 ft | 434 kts | 97° |
| 2026-05-01 11:32 | 51.39246 | -1.07367 | 27678 ft | 436 kts | 97° |
| 2026-05-01 11:33 | 51.39001 | -1.02519 | 27969 ft | 438 kts | 98° |
| 2026-05-01 11:33 | 51.38749 | -0.97652 | 28251 ft | 440 kts | 98° |
| 2026-05-01 11:33 | 51.38495 | -0.92765 | 28537 ft | 441 kts | 98° |
| 2026-05-01 11:33 | 51.38242 | -0.87873 | 28847 ft | 441 kts | 98° |
| 2026-05-01 11:34 | 51.37986 | -0.82969 | 29116 ft | 443 kts | 98° |
| 2026-05-01 11:34 | 51.37730 | -0.78115 | 29374 ft | 444 kts | 98° |
| 2026-05-01 11:34 | 51.37468 | -0.73179 | 29624 ft | 446 kts | 98° |
| 2026-05-01 11:34 | 51.37200 | -0.68226 | 29865 ft | 447 kts | 99° |
| 2026-05-01 11:35 | 51.36928 | -0.63258 | 30109 ft | 449 kts | 99° |
| 2026-05-01 11:35 | 51.36653 | -0.58274 | 30328 ft | 450 kts | 99° |
| 2026-05-01 11:35 | 51.36378 | -0.53281 | 30592 ft | 450 kts | 99° |
| 2026-05-01 11:35 | 51.36102 | -0.48298 | 30888 ft | 449 kts | 99° |
| 2026-05-01 11:36 | 51.35824 | -0.43326 | 31170 ft | 448 kts | 99° |
| 2026-05-01 11:36 | 51.35545 | -0.38351 | 31441 ft | 448 kts | 99° |
| 2026-05-01 11:36 | 51.35261 | -0.33396 | 31726 ft | 447 kts | 99° |
| 2026-05-01 11:36 | 51.34976 | -0.28459 | 32003 ft | 446 kts | 99° |
| 2026-05-01 11:37 | 51.34690 | -0.23518 | 32278 ft | 446 kts | 99° |
| 2026-05-01 11:37 | 51.34401 | -0.18586 | 32554 ft | 445 kts | 99° |
| 2026-05-01 11:37 | 51.34111 | -0.13662 | 32827 ft | 444 kts | 99° |
| 2026-05-01 11:37 | 51.33816 | -0.08734 | 33099 ft | 444 kts | 99° |
| 2026-05-01 11:38 | 51.33521 | -0.03838 | 33379 ft | 443 kts | 99° |
| 2026-05-01 11:38 | 51.33227 | 0.01069 | 33654 ft | 442 kts | 99° |
| 2026-05-01 11:38 | 51.32910 | 0.05940 | 33971 ft | 439 kts | 101° |
| 2026-05-01 11:38 | 51.32515 | 0.10773 | 34208 ft | 438 kts | 102° |
| 2026-05-01 11:39 | 51.32063 | 0.15567 | 34424 ft | 437 kts | 103° |
| 2026-05-01 11:39 | 51.31578 | 0.20367 | 34634 ft | 436 kts | 103° |
| 2026-05-01 11:39 | 51.31087 | 0.25152 | 34834 ft | 436 kts | 103° |
| 2026-05-01 11:39 | 51.30609 | 0.29872 | 35027 ft | 436 kts | 103° |
| 2026-05-01 11:40 | 51.30288 | 0.33101 | 35097 ft | 436 kts | 102° |
| 2026-05-01 11:40 | 51.29213 | 0.44202 | 35119 ft | 434 kts | 102° |
| 2026-05-01 11:41 | 51.28303 | 0.53718 | 35122 ft | 433 kts | 102° |
| 2026-05-01 11:41 | 51.27384 | 0.63195 | 35137 ft | 432 kts | 102° |
| 2026-05-01 11:42 | 51.26601 | 0.71073 | 35155 ft | 432 kts | 103° |
| 2026-05-01 11:42 | 51.25651 | 0.80553 | 35171 ft | 432 kts | 103° |
| 2026-05-01 11:43 | 51.24703 | 0.90011 | 35201 ft | 432 kts | 103° |
| 2026-05-01 11:43 | 51.23747 | 0.99477 | 35210 ft | 432 kts | 103° |
| 2026-05-01 11:44 | 51.22304 | 1.13663 | 35221 ft | 432 kts | 103° |
| 2026-05-01 11:44 | 51.21326 | 1.23111 | 35229 ft | 432 kts | 103° |
| 2026-05-01 11:45 | 51.20351 | 1.32493 | 35235 ft | 432 kts | 103° |
| 2026-05-01 11:45 | 51.19356 | 1.41944 | 35237 ft | 432 kts | 103° |
| 2026-05-01 11:46 | 51.18356 | 1.51378 | 35231 ft | 432 kts | 103° |
| 2026-05-01 11:46 | 51.17351 | 1.60807 | 35233 ft | 432 kts | 103° |
| 2026-05-01 11:47 | 51.16332 | 1.70240 | 35235 ft | 431 kts | 103° |
| 2026-05-01 11:47 | 51.15309 | 1.79668 | 35230 ft | 431 kts | 103° |
| 2026-05-01 11:48 | 51.14288 | 1.89071 | 35228 ft | 431 kts | 103° |
| 2026-05-01 11:48 | 51.13256 | 1.98423 | 35215 ft | 431 kts | 103° |
| 2026-05-01 11:49 | 51.12656 | 2.07956 | 35216 ft | 433 kts | 98° |
| 2026-05-01 11:49 | 51.12146 | 2.17515 | 35216 ft | 433 kts | 98° |
| 2026-05-01 11:50 | 51.11627 | 2.27078 | 35212 ft | 433 kts | 98° |
| 2026-05-01 11:50 | 51.11098 | 2.36633 | 35215 ft | 434 kts | 98° |
| 2026-05-01 11:51 | 51.10563 | 2.46191 | 35212 ft | 434 kts | 98° |
| 2026-05-01 11:51 | 51.10019 | 2.55684 | 35219 ft | 434 kts | 98° |
| 2026-05-01 11:52 | 51.09383 | 2.65212 | 35225 ft | 431 kts | 104° |
| 2026-05-01 11:52 | 51.07809 | 2.74373 | 35231 ft | 429 kts | 109° |
| 2026-05-01 11:53 | 51.06152 | 2.83495 | 35243 ft | 430 kts | 109° |
| 2026-05-01 11:53 | 51.04495 | 2.92622 | 35233 ft | 430 kts | 108° |
| 2026-05-01 11:54 | 51.02833 | 3.01750 | 35232 ft | 430 kts | 108° |
| 2026-05-01 11:54 | 51.01158 | 3.10866 | 35232 ft | 430 kts | 109° |
| 2026-05-01 11:55 | 50.99474 | 3.19977 | 35233 ft | 430 kts | 109° |
| 2026-05-01 11:55 | 50.97781 | 3.29078 | 35229 ft | 430 kts | 109° |
| 2026-05-01 11:56 | 50.96084 | 3.38187 | 35216 ft | 430 kts | 108° |
| 2026-05-01 11:56 | 50.94379 | 3.47293 | 35225 ft | 431 kts | 108° |
| 2026-05-01 11:57 | 50.92668 | 3.56348 | 35223 ft | 431 kts | 108° |
| 2026-05-01 11:57 | 50.90939 | 3.65445 | 35239 ft | 431 kts | 109° |
| 2026-05-01 11:58 | 50.89212 | 3.74555 | 35240 ft | 431 kts | 109° |
| 2026-05-01 11:59 | 50.86600 | 3.88204 | 35242 ft | 432 kts | 108° |
| 2026-05-01 11:59 | 50.84852 | 3.97259 | 35248 ft | 433 kts | 109° |
| 2026-05-01 12:00 | 50.82199 | 4.10921 | 35260 ft | 433 kts | 109° |
| 2026-05-01 12:01 | 50.79540 | 4.24574 | 35266 ft | 433 kts | 109° |
| 2026-05-01 12:01 | 50.77759 | 4.33658 | 35272 ft | 432 kts | 109° |
| 2026-05-01 12:02 | 50.75970 | 4.42725 | 35271 ft | 432 kts | 109° |
| 2026-05-01 12:02 | 50.74172 | 4.51773 | 35269 ft | 432 kts | 109° |
| 2026-05-01 12:03 | 50.72378 | 4.60811 | 35267 ft | 431 kts | 109° |
| 2026-05-01 12:03 | 50.70574 | 4.69840 | 35257 ft | 431 kts | 109° |
| 2026-05-01 12:04 | 50.68775 | 4.78805 | 35257 ft | 432 kts | 109° |
| 2026-05-01 12:04 | 50.66944 | 4.87824 | 35260 ft | 432 kts | 109° |
| 2026-05-01 12:05 | 50.64676 | 4.96560 | 35256 ft | 430 kts | 116° |
| 2026-05-01 12:05 | 50.60838 | 5.09338 | 35259 ft | 430 kts | 117° |
| 2026-05-01 12:06 | 50.58276 | 5.17841 | 35254 ft | 431 kts | 116° |
| 2026-05-01 12:06 | 50.55693 | 5.26357 | 35256 ft | 432 kts | 117° |
| 2026-05-01 12:07 | 50.53095 | 5.34879 | 35258 ft | 432 kts | 117° |
| 2026-05-01 12:07 | 50.50509 | 5.43327 | 35262 ft | 432 kts | 117° |
| 2026-05-01 12:08 | 50.47909 | 5.51823 | 35262 ft | 432 kts | 117° |
| 2026-05-01 12:08 | 50.45307 | 5.60316 | 35267 ft | 432 kts | 117° |
| 2026-05-01 12:09 | 50.42688 | 5.68817 | 35264 ft | 432 kts | 117° |
| 2026-05-01 12:09 | 50.40057 | 5.77304 | 35266 ft | 433 kts | 117° |
| 2026-05-01 12:10 | 50.36104 | 5.90015 | 35269 ft | 433 kts | 117° |
| 2026-05-01 12:11 | 50.32131 | 6.02724 | 35267 ft | 433 kts | 117° |
| 2026-05-01 12:11 | 50.29485 | 6.11151 | 35267 ft | 434 kts | 117° |
| 2026-05-01 12:12 | 50.26812 | 6.19629 | 35267 ft | 435 kts | 117° |
| 2026-05-01 12:12 | 50.24130 | 6.28106 | 35264 ft | 435 kts | 117° |
| 2026-05-01 12:13 | 50.21444 | 6.36595 | 35265 ft | 436 kts | 117° |
| 2026-05-01 12:13 | 50.18829 | 6.45124 | 35275 ft | 436 kts | 110° |
| 2026-05-01 12:14 | 50.17230 | 6.54246 | 35268 ft | 437 kts | 104° |
| 2026-05-01 12:14 | 50.15737 | 6.63429 | 35289 ft | 437 kts | 105° |
| 2026-05-01 12:15 | 50.14213 | 6.72603 | 35291 ft | 437 kts | 105° |
| 2026-05-01 12:15 | 50.12701 | 6.81713 | 35311 ft | 437 kts | 105° |
| 2026-05-01 12:16 | 50.11181 | 6.90880 | 35315 ft | 437 kts | 104° |
| 2026-05-01 12:16 | 50.09647 | 7.00052 | 35316 ft | 438 kts | 105° |
| 2026-05-01 12:17 | 50.08108 | 7.09237 | 35312 ft | 439 kts | 105° |
| 2026-05-01 12:17 | 50.06556 | 7.18427 | 35317 ft | 439 kts | 105° |
| 2026-05-01 12:18 | 50.04992 | 7.27616 | 35315 ft | 439 kts | 105° |
| 2026-05-01 12:18 | 50.03421 | 7.36807 | 35324 ft | 440 kts | 104° |
| 2026-05-01 12:19 | 50.01858 | 7.45941 | 35323 ft | 440 kts | 104° |
| 2026-05-01 12:19 | 50.00275 | 7.55135 | 35328 ft | 440 kts | 104° |
| 2026-05-01 12:20 | 49.98681 | 7.64337 | 35321 ft | 440 kts | 104° |
| 2026-05-01 12:20 | 49.97082 | 7.73521 | 35321 ft | 440 kts | 104° |
| 2026-05-01 12:21 | 49.95471 | 7.82708 | 35328 ft | 440 kts | 104° |
| 2026-05-01 12:21 | 49.93854 | 7.91883 | 35328 ft | 440 kts | 104° |
| 2026-05-01 12:22 | 49.92233 | 8.01052 | 35322 ft | 441 kts | 104° |
| 2026-05-01 12:22 | 49.90605 | 8.10214 | 35319 ft | 440 kts | 104° |
| 2026-05-01 12:23 | 49.88972 | 8.19363 | 35337 ft | 440 kts | 104° |
| 2026-05-01 12:23 | 49.87341 | 8.28460 | 35334 ft | 440 kts | 103° |
| 2026-05-01 12:24 | 49.85662 | 8.37578 | 35333 ft | 440 kts | 108° |
| 2026-05-01 12:24 | 49.82809 | 8.45944 | 35313 ft | 443 kts | 126° |
| 2026-05-01 12:25 | 49.77039 | 8.57147 | 35323 ft | 444 kts | 128° |
| 2026-05-01 12:26 | 49.73185 | 8.64622 | 35330 ft | 444 kts | 127° |
| 2026-05-01 12:26 | 49.67397 | 8.75806 | 35333 ft | 445 kts | 128° |
| 2026-05-01 12:27 | 49.61581 | 8.86971 | 35345 ft | 444 kts | 127° |
| 2026-05-01 12:28 | 49.55780 | 8.98077 | 35333 ft | 444 kts | 127° |
| 2026-05-01 12:29 | 49.49983 | 9.09123 | 35327 ft | 444 kts | 128° |
| 2026-05-01 12:29 | 49.44493 | 9.20553 | 35320 ft | 443 kts | 122° |
| 2026-05-01 12:30 | 49.39438 | 9.32432 | 35318 ft | 443 kts | 121° |
| 2026-05-01 12:31 | 49.36050 | 9.40335 | 35328 ft | 443 kts | 121° |
| 2026-05-01 12:31 | 49.32664 | 9.48231 | 35340 ft | 444 kts | 122° |
| 2026-05-01 12:32 | 49.29269 | 9.56138 | 35342 ft | 443 kts | 121° |
| 2026-05-01 12:32 | 49.24166 | 9.67965 | 35348 ft | 443 kts | 122° |
| 2026-05-01 12:33 | 49.20784 | 9.75777 | 35360 ft | 443 kts | 121° |
| 2026-05-01 12:33 | 49.17371 | 9.83629 | 35368 ft | 443 kts | 121° |
| 2026-05-01 12:34 | 49.13954 | 9.91464 | 35366 ft | 443 kts | 122° |
| 2026-05-01 12:34 | 49.11085 | 9.98028 | 35362 ft | 443 kts | 121° |
| 2026-05-01 12:35 | 49.07686 | 10.05789 | 35359 ft | 443 kts | 121° |
| 2026-05-01 12:35 | 49.03675 | 10.12921 | 35368 ft | 445 kts | 133° |
| 2026-05-01 12:36 | 48.99292 | 10.19575 | 35377 ft | 445 kts | 133° |
| 2026-05-01 12:36 | 48.94907 | 10.26219 | 35388 ft | 445 kts | 132° |
| 2026-05-01 12:37 | 48.90528 | 10.32846 | 35386 ft | 444 kts | 133° |
| 2026-05-01 12:37 | 48.86136 | 10.39473 | 35385 ft | 444 kts | 133° |
| 2026-05-01 12:38 | 48.81744 | 10.46073 | 35384 ft | 444 kts | 133° |
| 2026-05-01 12:38 | 48.77353 | 10.52674 | 35395 ft | 444 kts | 132° |
| 2026-05-01 12:39 | 48.72967 | 10.59252 | 35388 ft | 443 kts | 133° |
| 2026-05-01 12:39 | 48.68578 | 10.65812 | 35383 ft | 443 kts | 133° |
| 2026-05-01 12:40 | 48.64186 | 10.72351 | 35372 ft | 443 kts | 133° |
| 2026-05-01 12:40 | 48.59790 | 10.78877 | 35369 ft | 443 kts | 132° |
| 2026-05-01 12:41 | 48.55812 | 10.85911 | 35356 ft | 440 kts | 126° |
| 2026-05-01 12:41 | 48.51958 | 10.93085 | 35369 ft | 440 kts | 126° |
| 2026-05-01 12:42 | 48.48122 | 11.00195 | 35368 ft | 440 kts | 126° |
| 2026-05-01 12:42 | 48.44259 | 11.07341 | 35363 ft | 440 kts | 126° |
| 2026-05-01 12:43 | 48.40385 | 11.14481 | 35356 ft | 440 kts | 126° |
| 2026-05-01 12:43 | 48.36513 | 11.21591 | 35352 ft | 440 kts | 126° |
| 2026-05-01 12:44 | 48.32632 | 11.28701 | 35362 ft | 439 kts | 126° |
| 2026-05-01 12:45 | 48.24879 | 11.42857 | 35355 ft | 438 kts | 126° |
| 2026-05-01 12:45 | 48.20999 | 11.49913 | 35351 ft | 438 kts | 126° |
| 2026-05-01 12:46 | 48.17139 | 11.56909 | 35344 ft | 438 kts | 126° |
| 2026-05-01 12:46 | 48.13251 | 11.63944 | 35373 ft | 438 kts | 126° |
| 2026-05-01 12:47 | 48.09361 | 11.70963 | 35369 ft | 438 kts | 126° |
| 2026-05-01 12:47 | 48.05468 | 11.77960 | 35361 ft | 438 kts | 126° |
| 2026-05-01 12:48 | 48.01574 | 11.84949 | 35357 ft | 437 kts | 126° |
| 2026-05-01 12:48 | 47.97678 | 11.91928 | 35353 ft | 437 kts | 126° |
| 2026-05-01 12:49 | 47.93776 | 11.98891 | 35368 ft | 437 kts | 126° |
| 2026-05-01 12:49 | 47.89874 | 12.05839 | 35362 ft | 437 kts | 126° |
| 2026-05-01 12:50 | 47.85973 | 12.12773 | 35355 ft | 436 kts | 126° |
| 2026-05-01 12:50 | 47.82094 | 12.19644 | 35341 ft | 436 kts | 126° |
| 2026-05-01 12:51 | 47.78179 | 12.26553 | 35334 ft | 436 kts | 126° |
| 2026-05-01 12:52 | 47.72310 | 12.36885 | 35317 ft | 436 kts | 126° |
| 2026-05-01 12:52 | 47.66438 | 12.47189 | 35320 ft | 436 kts | 126° |
| 2026-05-01 12:53 | 47.60038 | 12.56813 | 35315 ft | 442 kts | 139° |
| 2026-05-01 12:54 | 47.55136 | 12.62337 | 35334 ft | 443 kts | 138° |
| 2026-05-01 12:54 | 47.47792 | 12.70628 | 35317 ft | 443 kts | 138° |
| 2026-05-01 12:55 | 47.40453 | 12.78878 | 35310 ft | 444 kts | 138° |
| 2026-05-01 12:56 | 47.35542 | 12.84383 | 35301 ft | 443 kts | 138° |
| 2026-05-01 12:56 | 47.30625 | 12.89886 | 35292 ft | 444 kts | 138° |
| 2026-05-01 12:57 | 47.25710 | 12.95378 | 35317 ft | 444 kts | 137° |
| 2026-05-01 12:57 | 47.18313 | 13.03604 | 35305 ft | 443 kts | 137° |
| 2026-05-01 12:58 | 47.13381 | 13.09062 | 35299 ft | 444 kts | 138° |
| 2026-05-01 12:59 | 47.05988 | 13.17234 | 35300 ft | 443 kts | 138° |
| 2026-05-01 12:59 | 46.98626 | 13.25362 | 35318 ft | 444 kts | 137° |
| 2026-05-01 13:00 | 46.91219 | 13.33500 | 35293 ft | 444 kts | 137° |
| 2026-05-01 13:01 | 46.83790 | 13.41627 | 35297 ft | 445 kts | 137° |
| 2026-05-01 13:02 | 46.76357 | 13.49726 | 35307 ft | 444 kts | 138° |
| 2026-05-01 13:07 | 46.23379 | 14.10727 | 35367 ft | 442 kts | 133° |
| 2026-05-01 13:08 | 46.18691 | 14.16357 | 35355 ft | 441 kts | 133° |
| 2026-05-01 13:08 | 46.13980 | 14.22027 | 35343 ft | 441 kts | 133° |
| 2026-05-01 13:09 | 46.09264 | 14.27682 | 35340 ft | 441 kts | 133° |
| 2026-05-01 13:09 | 46.04542 | 14.33329 | 35327 ft | 441 kts | 133° |
| 2026-05-01 13:10 | 45.99809 | 14.38966 | 35343 ft | 442 kts | 133° |
| 2026-05-01 13:10 | 45.95070 | 14.44593 | 35346 ft | 442 kts | 133° |
| 2026-05-01 13:11 | 45.90332 | 14.50209 | 35334 ft | 441 kts | 133° |
| 2026-05-01 13:11 | 45.85598 | 14.55818 | 35334 ft | 441 kts | 133° |
| 2026-05-01 13:12 | 45.80860 | 14.61416 | 35323 ft | 441 kts | 133° |
| 2026-05-01 13:12 | 45.76119 | 14.66999 | 35324 ft | 441 kts | 133° |
| 2026-05-01 13:13 | 45.71370 | 14.72580 | 35334 ft | 441 kts | 133° |
| 2026-05-01 13:13 | 45.66625 | 14.78151 | 35331 ft | 441 kts | 133° |
| 2026-05-01 13:14 | 45.61874 | 14.83707 | 35326 ft | 441 kts | 133° |
| 2026-05-01 13:14 | 45.57123 | 14.89247 | 35342 ft | 441 kts | 133° |
| 2026-05-01 13:15 | 45.52402 | 14.94747 | 35337 ft | 441 kts | 133° |
| 2026-05-01 13:15 | 45.47650 | 15.00274 | 35362 ft | 441 kts | 133° |
| 2026-05-01 13:16 | 45.42899 | 15.05790 | 35351 ft | 440 kts | 132° |
| 2026-05-01 13:16 | 45.38152 | 15.11297 | 35345 ft | 440 kts | 133° |
| 2026-05-01 13:17 | 45.28648 | 15.22247 | 35333 ft | 440 kts | 133° |
| 2026-05-01 13:18 | 45.21536 | 15.30409 | 35332 ft | 440 kts | 133° |
| 2026-05-01 13:18 | 45.16783 | 15.35865 | 35328 ft | 440 kts | 132° |
| 2026-05-01 13:19 | 45.12019 | 15.41318 | 35341 ft | 440 kts | 133° |
| 2026-05-01 13:20 | 45.04866 | 15.49461 | 35370 ft | 440 kts | 133° |
| 2026-05-01 13:20 | 45.00096 | 15.54883 | 35348 ft | 440 kts | 133° |
| 2026-05-01 13:21 | 44.92937 | 15.62989 | 35333 ft | 440 kts | 133° |
| 2026-05-01 13:21 | 44.88166 | 15.68393 | 35334 ft | 440 kts | 133° |
| 2026-05-01 13:22 | 44.84194 | 15.72885 | 35328 ft | 440 kts | 133° |
| 2026-05-01 13:22 | 44.78621 | 15.79154 | 35350 ft | 441 kts | 133° |
| 2026-05-01 13:23 | 44.74589 | 15.83677 | 35340 ft | 442 kts | 133° |
| 2026-05-01 13:23 | 44.69822 | 15.89031 | 35324 ft | 442 kts | 133° |
| 2026-05-01 13:24 | 44.65016 | 15.94413 | 35320 ft | 442 kts | 133° |
| 2026-05-01 13:25 | 44.57789 | 16.02473 | 35342 ft | 443 kts | 134° |
| 2026-05-01 13:25 | 44.52958 | 16.07850 | 35315 ft | 444 kts | 134° |
| 2026-05-01 13:26 | 44.48109 | 16.13222 | 35305 ft | 445 kts | 134° |
| 2026-05-01 13:26 | 44.43255 | 16.18598 | 35295 ft | 445 kts | 134° |
| 2026-05-01 13:27 | 44.38394 | 16.23987 | 35305 ft | 446 kts | 134° |
| 2026-05-01 13:27 | 44.31088 | 16.32046 | 35303 ft | 447 kts | 134° |
| 2026-05-01 13:28 | 44.23747 | 16.40107 | 35289 ft | 448 kts | 135° |
| 2026-05-01 13:29 | 44.13970 | 16.50809 | 35281 ft | 449 kts | 135° |
| 2026-05-01 13:31 | 43.99158 | 16.66932 | 35265 ft | 452 kts | 136° |
| 2026-05-01 13:32 | 43.86776 | 16.80329 | 35264 ft | 453 kts | 138° |
| 2026-05-01 13:33 | 43.74329 | 16.93738 | 35239 ft | 454 kts | 138° |
| 2026-05-01 13:34 | 43.64347 | 17.04427 | 35229 ft | 454 kts | 138° |
| 2026-05-01 13:35 | 43.56845 | 17.12431 | 35233 ft | 454 kts | 139° |
| 2026-05-01 13:36 | 43.49344 | 17.20403 | 35216 ft | 454 kts | 139° |
| 2026-05-01 13:36 | 43.41875 | 17.28323 | 35212 ft | 454 kts | 139° |
| 2026-05-01 13:37 | 43.36874 | 17.33611 | 35199 ft | 454 kts | 139° |
| 2026-05-01 13:37 | 43.31861 | 17.38899 | 35200 ft | 454 kts | 139° |
| 2026-05-01 13:38 | 43.24336 | 17.46820 | 35202 ft | 455 kts | 140° |
| 2026-05-01 13:39 | 43.19316 | 17.52100 | 35192 ft | 455 kts | 140° |
| 2026-05-01 13:39 | 43.14288 | 17.57360 | 35179 ft | 455 kts | 140° |
| 2026-05-01 13:40 | 43.09248 | 17.62613 | 35193 ft | 455 kts | 140° |
| 2026-05-01 13:40 | 43.04207 | 17.67871 | 35178 ft | 456 kts | 140° |
| 2026-05-01 13:41 | 42.99151 | 17.73141 | 35164 ft | 457 kts | 140° |
| 2026-05-01 13:41 | 42.94077 | 17.78414 | 35169 ft | 459 kts | 141° |
| 2026-05-01 13:42 | 42.88992 | 17.83692 | 35161 ft | 460 kts | 141° |
| 2026-05-01 13:42 | 42.83876 | 17.88983 | 35159 ft | 461 kts | 140° |
| 2026-05-01 13:43 | 42.78790 | 17.94221 | 35153 ft | 462 kts | 141° |
| 2026-05-01 13:43 | 42.73654 | 17.99501 | 35159 ft | 462 kts | 141° |
| 2026-05-01 13:44 | 42.68526 | 18.04770 | 35160 ft | 462 kts | 141° |
| 2026-05-01 13:44 | 42.63393 | 18.10027 | 35167 ft | 462 kts | 142° |
| 2026-05-01 13:45 | 42.58256 | 18.15279 | 35171 ft | 461 kts | 141° |
| 2026-05-01 13:45 | 42.53135 | 18.20521 | 35161 ft | 462 kts | 142° |
| 2026-05-01 13:46 | 42.47997 | 18.25755 | 35155 ft | 462 kts | 142° |
| 2026-05-01 13:46 | 42.42850 | 18.30980 | 35151 ft | 462 kts | 142° |
| 2026-05-01 13:47 | 42.37740 | 18.36169 | 35147 ft | 463 kts | 142° |
| 2026-05-01 13:47 | 42.32588 | 18.41389 | 35145 ft | 463 kts | 142° |
| 2026-05-01 13:48 | 42.27424 | 18.46607 | 35149 ft | 464 kts | 143° |
| 2026-05-01 13:48 | 42.22248 | 18.51819 | 35146 ft | 465 kts | 143° |
| 2026-05-01 13:49 | 42.17061 | 18.57036 | 35145 ft | 465 kts | 143° |
| 2026-05-01 13:49 | 42.11877 | 18.62243 | 35141 ft | 465 kts | 143° |
| 2026-05-01 13:50 | 42.06678 | 18.67442 | 35140 ft | 466 kts | 143° |
| 2026-05-01 13:50 | 42.01474 | 18.72657 | 35137 ft | 466 kts | 143° |
| 2026-05-01 13:51 | 41.96277 | 18.77857 | 35147 ft | 466 kts | 144° |
| 2026-05-01 13:51 | 41.91061 | 18.83046 | 35145 ft | 467 kts | 144° |
| 2026-05-01 13:52 | 41.85833 | 18.88236 | 35141 ft | 467 kts | 144° |
| 2026-05-01 13:52 | 41.80633 | 18.93385 | 35131 ft | 467 kts | 145° |
| 2026-05-01 13:53 | 41.75398 | 18.98564 | 35124 ft | 468 kts | 145° |
| 2026-05-01 13:53 | 41.67537 | 19.06311 | 35121 ft | 468 kts | 145° |
| 2026-05-01 13:54 | 41.62278 | 19.11479 | 35119 ft | 469 kts | 145° |
| 2026-05-01 13:54 | 41.57025 | 19.16641 | 35104 ft | 469 kts | 146° |
| 2026-05-01 13:55 | 41.51750 | 19.21808 | 35101 ft | 470 kts | 146° |
| 2026-05-01 13:55 | 41.46479 | 19.26970 | 35097 ft | 470 kts | 146° |
| 2026-05-01 13:56 | 41.41206 | 19.32126 | 35096 ft | 470 kts | 146° |
| 2026-05-01 13:56 | 41.35923 | 19.37277 | 35084 ft | 470 kts | 146° |
| 2026-05-01 13:57 | 41.31532 | 19.41544 | 35071 ft | 471 kts | 146° |
| 2026-05-01 13:57 | 41.25375 | 19.47525 | 35079 ft | 472 kts | 147° |
| 2026-05-01 13:58 | 41.20060 | 19.52664 | 35083 ft | 473 kts | 147° |
| 2026-05-01 13:58 | 41.14737 | 19.57802 | 35078 ft | 473 kts | 147° |
| 2026-05-01 13:59 | 41.09405 | 19.62945 | 35089 ft | 473 kts | 147° |
| 2026-05-01 13:59 | 41.04070 | 19.68086 | 35083 ft | 474 kts | 147° |
| 2026-05-01 14:00 | 40.98737 | 19.73209 | 35087 ft | 474 kts | 147° |
| 2026-05-01 14:00 | 40.93434 | 19.78286 | 35078 ft | 474 kts | 147° |
| 2026-05-01 14:01 | 40.88097 | 19.83394 | 35088 ft | 473 kts | 147° |
| 2026-05-01 14:01 | 40.82751 | 19.88500 | 35060 ft | 474 kts | 148° |
| 2026-05-01 14:02 | 40.77402 | 19.93591 | 35064 ft | 474 kts | 148° |
| 2026-05-01 14:02 | 40.72045 | 19.98677 | 35065 ft | 474 kts | 148° |
| 2026-05-01 14:03 | 40.66687 | 20.03764 | 35052 ft | 475 kts | 148° |
| 2026-05-01 14:03 | 40.61324 | 20.08855 | 35052 ft | 475 kts | 148° |
| 2026-05-01 14:04 | 40.55954 | 20.13926 | 35043 ft | 475 kts | 149° |